Time;durP1;ratioP1;P1;durP2;ratioP2;P2;SDS_P1;SDS_P2;PMS_P1;PMS_P2;Temp;Humidity;BMP_temperature;BMP_pressure;BME280_temperature;BME280_humidity;BME280_pressure;Samples;Min_cycle;Max_cycle;Signal;HPM_P1;HPM_P2
2021/08/28 00:03:10;;;;;;;8.65;2.40;;;16.30;99.90;;;;;;8261764;28;20077;-72
2021/08/28 00:07:12;;;;;;;6.38;2.55;;;16.20;99.90;;;;;;8263612;28;20054;-72
2021/08/28 00:11:14;;;;;;;8.13;2.65;;;16.20;99.90;;;;;;8261487;28;20450;-72
2021/08/28 00:15:15;;;;;;;6.70;2.53;;;16.10;99.90;;;;;;8262943;28;20038;-72
2021/08/28 00:19:17;;;;;;;9.57;2.60;;;16.10;99.90;;;;;;8261269;28;20053;-73
2021/08/28 00:23:19;;;;;;;7.50;2.33;;;16.20;99.90;;;;;;8261761;28;20049;-72
2021/08/28 00:27:21;;;;;;;7.00;2.38;;;16.20;99.90;;;;;;8276807;28;20065;-72
2021/08/28 00:31:22;;;;;;;6.45;2.40;;;16.20;99.90;;;;;;8262084;28;20042;-72
2021/08/28 00:35:24;;;;;;;8.48;2.80;;;16.20;99.90;;;;;;8260698;28;20042;-72
2021/08/28 00:39:26;;;;;;;6.90;2.35;;;16.20;99.90;;;;;;8262398;28;20157;-72
2021/08/28 00:43:28;;;;;;;7.72;2.45;;;16.20;99.90;;;;;;8261672;28;20054;-73
2021/08/28 00:47:30;;;;;;;11.55;2.70;;;16.10;99.90;;;;;;8260215;28;20077;-72
2021/08/28 00:51:32;;;;;;;8.10;2.85;;;16.10;99.90;;;;;;8262476;28;20050;-72
2021/08/28 00:55:35;;;;;;;11.00;2.92;;;16.10;99.90;;;;;;8267253;28;20042;-72
2021/08/28 00:59:37;;;;;;;11.07;3.38;;;16.10;99.90;;;;;;8261336;28;20054;-73
2021/08/28 01:03:43;;;;;;;8.60;3.03;;;16.10;99.90;;;;;;8261448;28;20050;-72
2021/08/28 01:07:56;;;;;;;7.10;2.50;;;16.10;99.90;;;;;;8259981;28;20061;-72
2021/08/28 01:12:12;;;;;;;8.80;2.95;;;16.10;99.90;;;;;;8261543;28;20050;-72
2021/08/28 01:16:16;;;;;;;7.47;2.83;;;16.20;99.90;;;;;;8271306;28;20410;-73
2021/08/28 01:20:47;;;;;;;7.63;3.20;;;16.20;99.90;;;;;;8266471;28;20121;-72
2021/08/28 01:24:49;;;;;;;8.20;2.58;;;16.20;99.90;;;;;;8264166;28;20065;-73
2021/08/28 01:28:59;;;;;;;6.80;2.90;;;16.30;99.90;;;;;;8260689;28;20062;-72
2021/08/28 01:33:03;;;;;;;9.25;2.78;;;16.30;99.90;;;;;;8257090;28;20053;-72
2021/08/28 01:37:08;;;;;;;7.60;3.00;;;16.30;99.90;;;;;;8260095;28;20417;-72
2021/08/28 01:41:10;;;;;;;7.70;2.80;;;16.40;99.90;;;;;;8260749;28;20061;-72
2021/08/28 01:45:14;;;;;;;8.48;3.00;;;16.40;99.90;;;;;;8259263;28;20057;-72
2021/08/28 01:49:17;;;;;;;8.05;2.80;;;16.40;99.90;;;;;;8259859;28;20042;-72
2021/08/28 01:53:19;;;;;;;8.95;3.13;;;16.40;99.90;;;;;;8261074;28;20042;-72
2021/08/28 01:57:21;;;;;;;7.90;2.70;;;16.30;99.90;;;;;;8260806;28;20046;-72
2021/08/28 02:01:23;;;;;;;8.30;2.83;;;16.40;99.90;;;;;;8260579;28;20049;-72
2021/08/28 02:05:27;;;;;;;8.23;2.88;;;16.40;99.90;;;;;;8257740;28;20058;-72
2021/08/28 02:09:47;;;;;;;6.18;2.95;;;16.40;99.90;;;;;;8260057;28;20647;-72
2021/08/28 02:13:54;;;;;;;10.40;2.97;;;16.40;99.90;;;;;;8260198;28;20055;-72
2021/08/28 02:18:16;;;;;;;8.02;2.53;;;16.40;99.90;;;;;;8258381;28;20572;-73
2021/08/28 02:22:26;;;;;;;8.23;2.90;;;16.40;99.90;;;;;;8258457;28;20403;-73
2021/08/28 02:26:41;;;;;;;7.70;2.75;;;16.40;99.90;;;;;;8274540;28;20050;-72
2021/08/28 02:30:45;;;;;;;9.95;2.90;;;16.40;99.90;;;;;;8259531;28;20046;-72
2021/08/28 02:34:50;;;;;;;7.03;3.00;;;16.40;99.90;;;;;;8272821;28;20046;-72
2021/08/28 02:38:53;;;;;;;10.32;3.50;;;16.40;99.90;;;;;;8260926;28;20046;-72
2021/08/28 02:42:56;;;;;;;10.93;3.22;;;16.40;99.90;;;;;;8259336;28;20046;-73
2021/08/28 02:47:00;;;;;;;7.63;3.08;;;16.40;99.90;;;;;;8262864;28;20043;-72
2021/08/28 02:51:05;;;;;;;9.10;3.17;;;16.40;99.90;;;;;;8263331;28;20050;-73
2021/08/28 02:55:09;;;;;;;9.05;3.10;;;16.40;99.90;;;;;;8264486;28;20054;-72
2021/08/28 02:59:11;;;;;;;9.80;3.00;;;16.40;99.90;;;;;;8265602;28;20061;-72
2021/08/28 03:03:14;;;;;;;7.65;2.95;;;16.40;99.90;;;;;;8264884;28;20471;-72
2021/08/28 03:07:17;;;;;;;9.85;3.00;;;16.40;99.90;;;;;;8265052;28;20058;-72
2021/08/28 03:11:20;;;;;;;7.65;2.70;;;16.40;99.90;;;;;;8264224;28;20042;-72
2021/08/28 03:15:22;;;;;;;8.68;2.90;;;16.40;99.90;;;;;;8262841;28;20054;-72
2021/08/28 03:19:25;;;;;;;6.78;2.58;;;16.40;99.90;;;;;;8262017;28;20050;-72
2021/08/28 03:23:30;;;;;;;7.95;3.00;;;16.40;99.90;;;;;;8264259;28;20390;-72
2021/08/28 03:27:34;;;;;;;11.00;2.80;;;16.50;99.90;;;;;;8264647;28;20065;-72
2021/08/28 03:31:36;;;;;;;9.95;3.25;;;16.50;99.90;;;;;;8263521;28;20065;-72
2021/08/28 03:35:38;;;;;;;7.72;2.78;;;16.50;99.90;;;;;;8262689;28;20093;-72
2021/08/28 03:39:41;;;;;;;8.38;2.85;;;16.50;99.90;;;;;;8264362;28;20054;-72
2021/08/28 03:43:45;;;;;;;8.45;2.80;;;16.50;99.90;;;;;;8263466;28;20093;-71
2021/08/28 03:47:48;;;;;;;9.05;3.33;;;16.50;99.90;;;;;;8263319;28;20067;-72
2021/08/28 03:51:50;;;;;;;9.13;2.70;;;16.50;99.90;;;;;;8262719;28;20394;-72
2021/08/28 03:55:52;;;;;;;7.03;2.88;;;16.60;99.90;;;;;;8258913;28;20126;-73
2021/08/28 03:59:53;;;;;;;7.97;2.72;;;16.60;99.90;;;;;;8259850;28;20105;-72
2021/08/28 04:03:55;;;;;;;9.65;3.05;;;16.60;99.90;;;;;;8258835;28;20519;-72
2021/08/28 04:07:57;;;;;;;9.13;3.00;;;16.60;99.90;;;;;;8262180;28;20050;-72
2021/08/28 04:11:59;;;;;;;9.82;3.33;;;16.60;99.90;;;;;;8264032;28;20490;-72
2021/08/28 04:16:01;;;;;;;7.47;3.10;;;16.60;99.90;;;;;;8260031;28;20042;-72
2021/08/28 04:20:04;;;;;;;7.35;2.90;;;16.60;99.90;;;;;;8259057;28;20054;-72
2021/08/28 04:24:06;;;;;;;8.45;3.40;;;16.60;99.90;;;;;;8262490;28;20058;-72
2021/08/28 04:28:07;;;;;;;6.25;3.05;;;16.60;99.90;;;;;;8259515;28;20096;-72
2021/08/28 04:32:09;;;;;;;8.93;3.28;;;16.60;99.90;;;;;;8260834;28;20420;-73
2021/08/28 04:36:11;;;;;;;8.20;3.05;;;16.60;99.90;;;;;;8258038;28;20046;-73
2021/08/28 04:40:13;;;;;;;6.55;2.83;;;16.60;99.90;;;;;;8260635;28;20501;-73
2021/08/28 04:44:15;;;;;;;5.93;2.75;;;16.60;99.90;;;;;;8276368;28;20414;-73
2021/08/28 04:48:16;;;;;;;6.78;3.10;;;16.60;99.90;;;;;;8260446;28;20269;-73
2021/08/28 04:52:21;;;;;;;8.57;3.30;;;16.60;99.90;;;;;;8260484;28;20129;-72
2021/08/28 04:56:23;;;;;;;7.35;2.88;;;16.60;99.90;;;;;;8262128;28;20458;-73
2021/08/28 05:00:25;;;;;;;7.28;2.80;;;16.50;99.90;;;;;;8276080;28;20042;-72
2021/08/28 05:04:27;;;;;;;7.18;2.90;;;16.60;99.90;;;;;;8258836;28;20054;-72
2021/08/28 05:08:28;;;;;;;8.85;3.70;;;16.50;99.90;;;;;;8258028;28;20050;-73
2021/08/28 05:12:30;;;;;;;7.38;2.75;;;16.60;99.90;;;;;;8255010;28;20120;-72
2021/08/28 05:16:32;;;;;;;6.03;2.85;;;16.60;99.90;;;;;;8259080;28;20058;-72
2021/08/28 05:20:34;;;;;;;5.88;3.20;;;16.60;99.90;;;;;;8255038;28;20137;-73
2021/08/28 05:24:37;;;;;;;9.45;3.60;;;16.60;99.90;;;;;;8258575;28;20093;-72
2021/08/28 05:28:39;;;;;;;7.60;2.90;;;16.60;99.90;;;;;;8258685;28;20468;-73
2021/08/28 05:32:43;;;;;;;7.97;3.20;;;16.60;99.90;;;;;;8259470;28;20096;-72
2021/08/28 05:36:44;;;;;;;8.38;3.35;;;16.60;99.90;;;;;;8258589;28;20042;-72
2021/08/28 05:40:46;;;;;;;7.47;2.88;;;16.70;99.90;;;;;;8258034;28;20046;-72
2021/08/28 05:44:48;;;;;;;;;;;16.80;99.90;;;;;;8256349;28;20057;-72
2021/08/28 05:48:49;;;;;;;7.30;3.15;;;16.90;99.90;;;;;;8257555;28;20077;-72
2021/08/28 05:52:51;;;;;;;9.15;3.30;;;16.90;99.90;;;;;;8258535;28;20102;-72
2021/08/28 05:56:53;;;;;;;6.87;3.10;;;16.90;99.90;;;;;;8252475;28;20049;-72
2021/08/28 06:00:54;;;;;;;8.15;3.35;;;16.90;99.90;;;;;;8247582;28;20382;-73
2021/08/28 06:04:56;;;;;;;7.60;3.15;;;17.00;99.90;;;;;;8248915;28;20085;-72
2021/08/28 06:08:58;;;;;;;7.10;3.13;;;17.00;99.90;;;;;;8251764;28;20097;-72
2021/08/28 06:13:00;;;;;;;10.95;3.60;;;17.00;99.90;;;;;;8267772;28;20235;-72
2021/08/28 06:17:02;;;;;;;9.38;3.60;;;17.00;99.90;;;;;;8249638;28;19921;-73
2021/08/28 06:21:03;;;;;;;6.07;3.10;;;16.90;99.90;;;;;;8267963;28;20050;-73
2021/08/28 06:25:06;;;;;;;10.30;3.40;;;16.90;99.90;;;;;;8254167;28;20057;-72
2021/08/28 06:29:07;;;;;;;11.88;3.67;;;16.90;99.90;;;;;;8251921;28;20082;-72
2021/08/28 06:33:09;;;;;;;;;;;16.90;99.90;;;;;;8253794;28;20165;-73
2021/08/28 06:37:11;;;;;;;9.23;3.53;;;17.00;99.90;;;;;;8257159;28;20439;-72
2021/08/28 06:41:12;;;;;;;8.50;3.30;;;17.00;99.90;;;;;;8255811;28;20165;-72
2021/08/28 06:45:14;;;;;;;7.97;3.05;;;17.00;99.90;;;;;;8242776;28;20117;-73
2021/08/28 06:49:16;;;;;;;6.45;3.25;;;17.10;99.90;;;;;;8269500;28;20042;-72
2021/08/28 06:53:18;;;;;;;7.82;3.47;;;17.20;99.90;;;;;;8256926;28;20399;-72
2021/08/28 06:57:20;;;;;;;10.27;3.67;;;17.30;99.90;;;;;;8268169;28;20387;-73
2021/08/28 07:01:21;;;;;;;9.75;3.42;;;17.40;99.90;;;;;;8253031;28;20549;-72
2021/08/28 07:05:24;;;;;;;10.18;3.47;;;17.40;99.90;;;;;;8255560;28;20058;-72
2021/08/28 07:09:26;;;;;;;8.23;3.30;;;17.50;99.90;;;;;;8250455;28;20035;-72
2021/08/28 07:13:27;;;;;;;7.70;3.53;;;17.40;99.90;;;;;;8252425;28;20042;-73
2021/08/28 07:17:29;;;;;;;6.97;3.25;;;17.40;99.90;;;;;;8272944;28;20436;-73
2021/08/28 07:21:31;;;;;;;8.07;3.60;;;17.40;99.90;;;;;;8255197;28;20054;-72
2021/08/28 07:25:37;;;;;;;7.85;3.90;;;17.40;99.90;;;;;;8254326;28;20062;-72
2021/08/28 07:29:38;;;;;;;10.05;4.10;;;17.50;99.90;;;;;;8254517;28;20046;-72
2021/08/28 07:33:40;;;;;;;10.88;4.30;;;17.50;99.90;;;;;;8254296;28;20054;-73
2021/08/28 07:37:42;;;;;;;10.15;3.92;;;17.50;99.90;;;;;;8245107;28;20418;-72
2021/08/28 07:41:44;;;;;;;9.70;3.60;;;17.60;99.90;;;;;;8255147;28;20474;-73
2021/08/28 07:45:45;;;;;;;;;;;17.70;99.90;;;;;;8252514;28;20320;-72
2021/08/28 07:49:47;;;;;;;;;;;17.80;99.90;;;;;;8254295;28;20353;-72
2021/08/28 07:53:49;;;;;;;;;;;17.80;99.90;;;;;;8254143;28;19928;-73
2021/08/28 07:57:51;;;;;;;;;;;17.70;99.90;;;;;;8254556;28;20208;-73
2021/08/28 08:01:53;;;;;;;;;;;17.80;99.90;;;;;;8269080;28;20366;-72
2021/08/28 08:05:55;;;;;;;;;;;17.80;99.90;;;;;;8254140;28;19921;-72
2021/08/28 08:09:57;;;;;;;;;;;17.80;99.90;;;;;;8251941;28;19922;-72
2021/08/28 08:13:59;;;;;;;7.70;3.17;;;17.80;99.90;;;;;;8252455;28;19929;-73
2021/08/28 08:18:00;;;;;;;7.47;3.33;;;17.80;99.90;;;;;;8252344;28;19926;-72
2021/08/28 08:22:02;;;;;;;5.80;3.30;;;17.80;99.90;;;;;;8253019;28;20042;-73
2021/08/28 08:26:04;;;;;;;7.00;3.63;;;17.90;99.90;;;;;;8252233;28;20275;-73
2021/08/28 08:30:06;;;;;;;7.75;3.75;;;17.90;99.90;;;;;;8252813;28;20076;-72
2021/08/28 08:34:08;;;;;;;9.25;3.55;;;17.90;99.90;;;;;;8252395;28;21032;-72
2021/08/28 08:38:10;;;;;;;7.60;3.80;;;17.90;99.90;;;;;;8252990;28;20050;-72
2021/08/28 08:42:13;;;;;;;8.30;3.70;;;17.90;99.90;;;;;;8250928;28;20042;-72
2021/08/28 08:46:15;;;;;;;8.95;4.05;;;18.00;99.90;;;;;;8251997;28;20585;-73
2021/08/28 08:50:19;;;;;;;10.50;3.58;;;18.00;99.90;;;;;;8251287;28;20046;-73
2021/08/28 08:54:21;;;;;;;10.75;3.90;;;18.00;99.90;;;;;;8241386;28;20039;-73
2021/08/28 08:58:23;;;;;;;;;;;18.20;99.90;;;;;;8252722;28;19922;-72
2021/08/28 09:02:25;;;;;;;;;;;18.40;99.90;;;;;;8251669;28;20021;-72
2021/08/28 09:06:27;;;;;;;;;;;18.50;99.90;;;;;;8252284;28;20308;-72
2021/08/28 09:10:29;;;;;;;;;;;18.60;99.90;;;;;;8253163;28;19988;-72
2021/08/28 09:14:30;;;;;;;;;;;18.60;99.90;;;;;;8250382;28;19921;-72
2021/08/28 09:18:50;;;;;;;;;;;18.70;99.90;;;;;;8250573;28;19930;-72
2021/08/28 09:23:02;;;;;;;;;;;18.80;99.90;;;;;;8251263;28;20318;-72
2021/08/28 09:27:04;;;;;;;;;;;18.90;99.90;;;;;;8249843;28;19930;-72
2021/08/28 09:31:11;;;;;;;;;;;19.00;99.90;;;;;;8252078;28;19922;-72
2021/08/28 09:35:13;;;;;;;;;;;19.10;99.90;;;;;;8249735;28;19922;-72
2021/08/28 09:39:16;;;;;;;;;;;19.20;99.90;;;;;;8251330;28;19926;-72
2021/08/28 09:43:19;;;;;;;;;;;19.10;99.90;;;;;;8264382;28;20381;-72
2021/08/28 09:47:30;;;;;;;;;;;19.10;99.90;;;;;;8262384;28;19929;-72
2021/08/28 09:51:37;;;;;;;;;;;19.00;99.90;;;;;;8264796;28;20282;-72
2021/08/28 09:55:40;;;;;;;;;;;19.00;99.90;;;;;;8260424;28;19929;-72
2021/08/28 09:59:42;;;;;;;;;;;19.00;99.90;;;;;;8246991;28;19996;-72
2021/08/28 10:03:55;;;;;;;;;;;19.10;99.90;;;;;;8249045;28;19926;-72
2021/08/28 10:07:58;;;;;;;;;;;19.30;99.90;;;;;;8250232;28;19921;-72
2021/08/28 10:12:00;;;;;;;;;;;19.40;99.90;;;;;;8249180;28;19929;-72
2021/08/28 10:16:02;;;;;;;;;;;19.40;99.90;;;;;;8251463;28;19922;-72
2021/08/28 10:20:05;;;;;;;;;;;19.60;99.90;;;;;;8262789;28;19926;-72
2021/08/28 10:24:06;;;;;;;;;;;19.60;99.90;;;;;;8249960;28;19921;-72
2021/08/28 10:28:10;;;;;;;;;;;19.60;99.90;;;;;;8249600;28;19941;-72
2021/08/28 10:32:12;;;;;;;;;;;19.60;99.90;;;;;;8247975;28;20370;-72
2021/08/28 10:36:13;;;;;;;;;;;19.70;99.90;;;;;;8238288;28;19922;-72
2021/08/28 10:40:18;;;;;;;;;;;19.90;99.90;;;;;;8248058;28;19936;-72
2021/08/28 10:44:20;;;;;;;;;;;20.00;99.90;;;;;;8247809;28;20375;-72
2021/08/28 10:48:22;;;;;;;;;;;20.00;99.90;;;;;;8245467;28;20229;-72
2021/08/28 10:52:24;;;;;;;;;;;19.90;99.90;;;;;;8251332;28;19933;-72
2021/08/28 10:56:36;;;;;;;;;;;19.80;99.90;;;;;;8250003;28;20275;-72
2021/08/28 11:00:42;;;;;;;;;;;19.70;99.90;;;;;;8248644;28;19929;-72
2021/08/28 11:04:45;;;;;;;;;;;19.70;99.90;;;;;;8235893;28;19933;-72
2021/08/28 11:08:54;;;;;;;;;;;19.80;99.90;;;;;;8241753;28;19923;-72
2021/08/28 11:13:03;;;;;;;;;;;19.80;99.90;;;;;;8255369;28;19929;-72
2021/08/28 11:17:11;;;;;;;;;;;19.80;99.90;;;;;;8263288;28;19921;-72
2021/08/28 11:21:13;;;;;;;;;;;19.70;99.90;;;;;;8255742;28;19944;-72
2021/08/28 11:25:14;;;;;;;;;;;19.70;99.90;;;;;;8254728;28;19922;-72
2021/08/28 11:29:23;;;;;;;;;;;19.70;99.90;;;;;;8254471;28;20448;-74
2021/08/28 11:33:27;;;;;;;;;;;19.60;99.90;;;;;;8252921;28;19926;-72
2021/08/28 11:37:29;;;;;;;;;;;19.60;99.90;;;;;;8255313;28;19922;-72
2021/08/28 11:41:30;;;;;;;;;;;19.60;99.90;;;;;;8254591;28;20382;-72
2021/08/28 11:45:36;;;;;;;;;;;19.60;99.90;;;;;;8252931;28;19960;-72
2021/08/28 11:49:38;;;;;;;;;;;19.60;99.90;;;;;;8253143;28;19925;-72
2021/08/28 11:53:41;;;;;;;;;;;19.70;99.90;;;;;;8247311;28;19925;-72
2021/08/28 11:57:58;;;;;;;;;;;19.80;99.90;;;;;;8249748;28;19922;-72
2021/08/28 12:01:59;;;;;;;;;;;19.90;99.90;;;;;;8252390;28;19930;-72
2021/08/28 12:06:01;;;;;;;;;;;20.00;99.90;;;;;;8248369;28;19921;-72
2021/08/28 12:10:04;;;;;;;;;;;20.10;99.90;;;;;;8252211;28;19921;-72
2021/08/28 12:14:07;;;;;;;;;;;20.10;99.90;;;;;;8252213;28;19934;-72
2021/08/28 12:18:09;;;;;;;;;;;20.00;99.90;;;;;;8252136;28;20314;-72
2021/08/28 12:22:11;;;;;;;;;;;19.90;99.90;;;;;;8266001;28;19922;-72
2021/08/28 12:26:13;;;;;;;;;;;19.90;99.90;;;;;;8253410;28;19926;-72
2021/08/28 12:30:15;;;;;;;;;;;19.80;99.90;;;;;;8264805;28;19976;-72
2021/08/28 12:34:18;;;;;;;;;;;19.80;99.90;;;;;;8250038;28;20007;-72
2021/08/28 12:38:20;;;;;;;;;;;19.80;99.90;;;;;;8252227;28;19929;-72
2021/08/28 12:42:23;;;;;;;;;;;19.80;99.90;;;;;;8253288;28;19922;-72
2021/08/28 12:46:25;;;;;;;;;;;19.90;99.90;;;;;;8253191;28;19932;-72
2021/08/28 12:50:26;;;;;;;;;;;19.90;99.90;;;;;;8253749;28;19929;-72
2021/08/28 12:54:46;;;;;;;;;;;20.10;99.90;;;;;;8253344;28;19921;-72
2021/08/28 12:58:48;;;;;;;;;;;20.20;99.90;;;;;;8253814;28;19921;-72
2021/08/28 13:02:50;;;;;;;;;;;20.20;99.90;;;;;;8251884;28;19930;-72
2021/08/28 13:07:11;;;;;;;;;;;20.30;99.90;;;;;;8253010;28;19922;-73
2021/08/28 13:11:24;;;;;;;;;;;20.30;99.90;;;;;;8252892;28;19925;-72
2021/08/28 13:15:25;;;;;;;;;;;20.30;99.90;;;;;;8252709;28;19976;-72
2021/08/28 13:19:31;;;;;;;;;;;20.30;99.90;;;;;;8251570;28;19925;-72
2021/08/28 13:23:32;;;;;;;;;;;20.20;99.90;;;;;;8266799;28;19926;-72
2021/08/28 13:27:42;;;;;;;;;;;20.20;99.90;;;;;;8252116;28;19991;-72
2021/08/28 13:31:44;;;;;;;;;;;20.20;99.90;;;;;;8252674;28;19929;-72
2021/08/28 13:35:46;;;;;;;;;;;20.10;99.90;;;;;;8250196;28;19930;-72
2021/08/28 13:39:47;;;;;;;;;;;20.00;99.90;;;;;;8252903;28;20373;-72
2021/08/28 13:43:50;;;;;;;;;;;20.00;99.90;;;;;;8248985;28;19921;-73
2021/08/28 13:47:52;;;;;;;;;;;20.00;99.90;;;;;;8252511;28;19929;-72
2021/08/28 13:51:54;;;;;;;;;;;19.90;99.90;;;;;;8252637;28;19943;-72
2021/08/28 13:55:55;;;;;;;;;;;19.90;99.90;;;;;;8249920;28;19929;-72
2021/08/28 13:59:57;;;;;;;;;;;19.90;99.90;;;;;;8251254;28;19926;-72
2021/08/28 14:03:58;;;;;;;;;;;20.00;99.90;;;;;;8249936;28;19930;-72
2021/08/28 14:08:00;;;;;;;;;;;20.00;99.90;;;;;;8251644;28;19960;-72
2021/08/28 14:12:02;;;;;;;;;;;20.00;99.90;;;;;;8249220;28;19925;-72
2021/08/28 14:16:04;;;;;;;;;;;20.00;99.90;;;;;;8252007;28;19922;-72
2021/08/28 14:20:07;;;;;;;;;;;20.00;99.90;;;;;;8251498;28;19925;-72
2021/08/28 14:24:08;;;;;;;;;;;20.00;99.90;;;;;;8250916;28;20388;-72
2021/08/28 14:28:11;;;;;;;;;;;20.10;99.90;;;;;;8250372;28;20396;-72
2021/08/28 14:32:12;;;;;;;;;;;20.10;99.90;;;;;;8250657;28;19977;-72
2021/08/28 14:36:14;;;;;;;;;;;20.10;99.90;;;;;;8249164;28;19936;-73
2021/08/28 14:40:16;;;;;;;;;;;20.10;99.90;;;;;;8249565;28;19929;-72
2021/08/28 14:44:17;;;;;;;;;;;20.00;99.90;;;;;;8257015;28;19926;-72
2021/08/28 14:48:19;;;;;;;5.00;2.20;;;19.90;99.90;;;;;;8255214;28;19933;-73
2021/08/28 14:52:21;;;;;;;6.30;2.72;;;19.80;99.90;;;;;;8256871;28;20054;-72
2021/08/28 14:56:27;;;;;;;;;;;19.80;99.90;;;;;;8258924;28;19979;-72
2021/08/28 15:00:29;;;;;;;;;;;19.70;99.90;;;;;;8257015;28;20413;-72
2021/08/28 15:04:31;;;;;;;;;;;19.70;99.90;;;;;;8255217;28;20294;-72
2021/08/28 15:08:32;;;;;;;;;;;19.60;99.90;;;;;;8254627;28;19929;-72
2021/08/28 15:12:34;;;;;;;;;;;19.60;99.90;;;;;;8252047;28;19932;-72
2021/08/28 15:16:40;;;;;;;;;;;19.50;99.90;;;;;;8253916;28;20037;-72
2021/08/28 15:20:41;;;;;;;;;;;19.50;99.90;;;;;;8256346;28;20238;-73
2021/08/28 15:24:43;;;;;;;;;;;19.50;99.90;;;;;;8255349;28;19921;-72
2021/08/28 15:28:45;;;;;;;;;;;19.50;99.90;;;;;;8255043;28;19922;-72
2021/08/28 15:32:46;;;;;;;;;;;19.50;99.90;;;;;;8250775;28;19926;-72
2021/08/28 15:36:48;;;;;;;;;;;19.50;99.90;;;;;;8254683;28;19925;-72
2021/08/28 15:40:50;;;;;;;;;;;19.50;99.90;;;;;;8253964;28;19932;-72
2021/08/28 15:44:52;;;;;;;;;;;19.50;99.90;;;;;;8253908;28;19922;-72
2021/08/28 15:48:54;;;;;;;;;;;19.40;99.90;;;;;;8254130;28;20412;-72
2021/08/28 15:52:55;;;;;;;7.53;2.47;;;19.40;99.90;;;;;;8235321;28;20900;-72
2021/08/28 15:56:58;;;;;;;9.07;2.67;;;19.40;99.90;;;;;;8254355;28;20104;-72
2021/08/28 16:01:00;;;;;;;5.55;2.50;;;19.40;99.90;;;;;;8254498;28;20057;-72
2021/08/28 16:05:08;;;;;;;5.85;2.58;;;19.40;99.90;;;;;;8252657;28;20406;-72
2021/08/28 16:09:10;;;;;;;7.95;2.55;;;19.30;99.90;;;;;;8254790;28;20088;-72
2021/08/28 16:13:16;;;;;;;4.95;2.20;;;19.30;99.90;;;;;;8251823;28;20045;-72
2021/08/28 16:17:18;;;;;;;5.55;2.30;;;19.20;99.90;;;;;;8253140;28;21959;-72
2021/08/28 16:21:20;;;;;;;8.02;2.20;;;19.20;99.90;;;;;;8248091;28;20109;-72
2021/08/28 16:25:21;;;;;;;5.55;2.08;;;19.20;99.90;;;;;;8246768;28;20540;-72
2021/08/28 16:29:23;;;;;;;5.07;1.98;;;19.20;99.90;;;;;;8253754;28;20443;-72
2021/08/28 16:33:25;;;;;;;5.07;2.30;;;19.20;99.90;;;;;;8247305;28;20057;-72
2021/08/28 16:37:27;;;;;;;5.40;2.22;;;19.20;99.90;;;;;;8266558;28;20054;-72
2021/08/28 16:41:28;;;;;;;6.90;2.40;;;19.10;99.90;;;;;;8253665;28;20101;-72
2021/08/28 16:45:30;;;;;;;10.20;2.42;;;19.20;99.90;;;;;;8252147;28;20050;-72
2021/08/28 16:49:33;;;;;;;7.25;2.25;;;19.20;99.90;;;;;;8251605;28;20062;-73
2021/08/28 16:53:34;;;;;;;8.05;2.30;;;19.20;99.90;;;;;;8266348;28;20053;-72
2021/08/28 16:57:36;;;;;;;5.22;2.00;;;19.10;99.90;;;;;;8251708;28;20061;-72
2021/08/28 17:01:38;;;;;;;7.97;2.53;;;19.00;99.90;;;;;;8266467;28;20054;-72
2021/08/28 17:05:40;;;;;;;6.15;2.25;;;19.00;99.90;;;;;;8249685;28;20061;-72
2021/08/28 17:09:42;;;;;;;6.63;2.40;;;19.00;99.90;;;;;;8254444;28;20116;-72
2021/08/28 17:13:44;;;;;;;6.13;2.28;;;19.00;99.90;;;;;;8254320;28;20324;-72
2021/08/28 17:17:46;;;;;;;7.78;2.50;;;19.00;99.90;;;;;;8252127;28;20046;-72
2021/08/28 17:21:47;;;;;;;6.25;2.55;;;18.90;99.90;;;;;;8265054;28;20079;-73
2021/08/28 17:25:49;;;;;;;6.00;2.47;;;18.90;99.90;;;;;;8252136;28;20596;-72
2021/08/28 17:29:51;;;;;;;5.03;2.40;;;18.80;99.90;;;;;;8252364;28;20414;-72
2021/08/28 17:33:53;;;;;;;6.65;2.40;;;18.80;99.90;;;;;;8251368;28;20050;-72
2021/08/28 17:37:54;;;;;;;6.57;2.50;;;18.70;99.90;;;;;;8253650;28;20447;-72
2021/08/28 17:41:56;;;;;;;8.27;2.35;;;18.70;99.90;;;;;;8253321;28;20043;-72
2021/08/28 17:45:58;;;;;;;5.50;2.30;;;18.70;99.90;;;;;;8250837;28;20441;-72
2021/08/28 17:49:59;;;;;;;7.22;2.42;;;18.70;99.90;;;;;;8251601;28;20046;-72
2021/08/28 17:54:01;;;;;;;6.15;2.30;;;18.70;99.90;;;;;;8250658;28;20047;-72
2021/08/28 17:58:05;;;;;;;5.75;2.15;;;18.70;99.90;;;;;;8251492;28;20414;-72
2021/08/28 18:02:07;;;;;;;6.93;2.22;;;18.70;99.90;;;;;;8249038;28;20069;-72
2021/08/28 18:06:09;;;;;;;7.28;2.30;;;18.70;99.90;;;;;;8249688;28;20042;-72
2021/08/28 18:10:12;;;;;;;6.85;2.35;;;18.70;99.90;;;;;;8264243;28;23788;-72
2021/08/28 18:14:14;;;;;;;5.32;2.30;;;18.70;99.90;;;;;;8249982;28;20046;-72
2021/08/28 18:18:15;;;;;;;4.30;2.15;;;18.70;99.90;;;;;;8251897;28;20073;-72
2021/08/28 18:22:17;;;;;;;5.70;2.13;;;18.60;99.90;;;;;;8250904;28;20398;-72
2021/08/28 18:26:19;;;;;;;6.13;2.20;;;18.60;99.90;;;;;;8247360;28;20061;-72
2021/08/28 18:30:24;;;;;;;4.57;2.00;;;18.60;99.90;;;;;;8247808;28;20165;-72
2021/08/28 18:34:26;;;;;;;4.75;2.05;;;18.60;99.90;;;;;;8248801;28;20049;-72
2021/08/28 18:38:27;;;;;;;5.32;2.03;;;18.50;99.90;;;;;;8250981;28;20046;-72
2021/08/28 18:42:29;;;;;;;7.88;2.45;;;18.50;99.90;;;;;;8250828;28;20050;-73
2021/08/28 18:46:31;;;;;;;6.60;2.25;;;18.50;99.90;;;;;;8249251;28;20112;-72
2021/08/28 18:50:33;;;;;;;7.15;2.38;;;18.50;99.90;;;;;;8235115;28;20102;-72
2021/08/28 18:54:35;;;;;;;5.85;2.08;;;18.60;99.90;;;;;;8241947;28;20435;-72
2021/08/28 18:58:37;;;;;;;6.93;2.25;;;18.50;99.90;;;;;;8250459;28;20053;-72
2021/08/28 19:02:38;;;;;;;5.10;2.30;;;18.50;99.90;;;;;;8251471;28;20105;-72
2021/08/28 19:06:40;;;;;;;6.13;2.50;;;18.50;99.90;;;;;;8252529;28;20477;-73
2021/08/28 19:10:45;;;;;;;6.72;2.42;;;18.50;99.90;;;;;;8254014;28;20054;-72
2021/08/28 19:14:47;;;;;;;5.53;2.10;;;18.50;99.90;;;;;;8235498;28;21297;-72
2021/08/28 19:18:50;;;;;;;9.57;2.58;;;18.40;99.90;;;;;;8246598;28;20066;-73
2021/08/28 19:22:53;;;;;;;7.95;2.20;;;18.40;99.90;;;;;;8248562;28;20266;-73
2021/08/28 19:26:55;;;;;;;6.80;2.42;;;18.40;99.90;;;;;;8252788;28;20506;-73
2021/08/28 19:30:57;;;;;;;6.05;2.50;;;18.40;99.90;;;;;;8256520;28;20450;-73
2021/08/28 19:34:59;;;;;;;6.03;2.38;;;18.30;99.90;;;;;;8262887;28;20100;-73
2021/08/28 19:39:00;;;;;;;6.32;2.30;;;18.30;99.90;;;;;;8254934;28;20069;-73
2021/08/28 19:43:03;;;;;;;5.45;2.47;;;18.30;99.90;;;;;;8250231;28;20054;-73
2021/08/28 19:47:05;;;;;;;6.75;2.38;;;18.20;99.90;;;;;;8247970;28;20062;-72
2021/08/28 19:51:07;;;;;;;7.43;2.67;;;18.20;99.90;;;;;;8268604;28;20054;-72
2021/08/28 19:55:09;;;;;;;7.32;2.80;;;18.20;99.90;;;;;;8251680;28;20053;-73
2021/08/28 19:59:11;;;;;;;8.07;2.45;;;18.20;99.90;;;;;;8254256;28;20038;-72
2021/08/28 20:03:12;;;;;;;6.32;2.33;;;18.20;99.90;;;;;;8252128;28;20517;-72
2021/08/28 20:07:14;;;;;;;5.65;2.25;;;18.10;99.90;;;;;;8252726;28;20050;-73
2021/08/28 20:11:16;;;;;;;7.10;2.63;;;18.10;99.90;;;;;;8251437;28;20050;-72
2021/08/28 20:15:18;;;;;;;7.95;2.30;;;18.10;99.90;;;;;;8252687;28;20095;-72
2021/08/28 20:19:19;;;;;;;8.55;2.67;;;18.00;99.90;;;;;;8252727;28;20054;-73
2021/08/28 20:23:21;;;;;;;6.70;1.90;;;18.00;99.90;;;;;;8252989;28;20074;-72
2021/08/28 20:27:23;;;;;;;6.38;2.35;;;17.90;99.90;;;;;;8253082;28;20114;-72
2021/08/28 20:31:25;;;;;;;7.03;2.10;;;17.90;99.90;;;;;;8252017;28;20288;-72
2021/08/28 20:35:27;;;;;;;4.63;2.13;;;17.90;99.90;;;;;;8250621;28;20046;-72
2021/08/28 20:39:29;;;;;;;8.38;2.17;;;17.80;99.90;;;;;;8252557;28;20042;-73
2021/08/28 20:43:31;;;;;;;8.05;2.08;;;17.80;99.90;;;;;;8251149;28;20052;-73
2021/08/28 20:47:33;;;;;;;6.22;2.20;;;17.80;99.90;;;;;;8253095;28;20058;-73
2021/08/28 20:51:34;;;;;;;6.38;1.90;;;17.80;99.90;;;;;;8252512;28;20070;-73
2021/08/28 20:55:39;;;;;;;9.75;2.33;;;17.80;99.90;;;;;;8266101;28;20074;-72
2021/08/28 20:59:41;;;;;;;7.78;2.50;;;17.80;99.90;;;;;;8253675;28;19921;-73
2021/08/28 21:03:43;;;;;;;4.70;2.40;;;17.80;99.90;;;;;;8271567;28;20054;-72
2021/08/28 21:07:45;;;;;;;5.70;2.40;;;17.70;99.90;;;;;;8260416;28;20058;-72
2021/08/28 21:11:47;;;;;;;;;;;17.70;99.90;;;;;;8260207;28;20046;-73
2021/08/28 21:15:48;;;;;;;;;;;17.70;99.90;;;;;;8259905;28;20230;-73
2021/08/28 21:19:50;;;;;;;;;;;17.70;99.90;;;;;;8258352;28;19929;-73
2021/08/28 21:23:51;;;;;;;;;;;17.60;99.90;;;;;;8258713;28;19925;-72
2021/08/28 21:27:53;;;;;;;;;;;17.60;99.90;;;;;;8274933;28;19940;-72
2021/08/28 21:31:55;;;;;;;;;;;17.50;99.90;;;;;;8259375;28;19929;-72
2021/08/28 21:35:56;;;;;;;;;;;17.50;99.90;;;;;;8259613;28;19921;-72
2021/08/28 21:39:58;;;;;;;;;;;17.50;99.90;;;;;;8256956;28;19926;-72
2021/08/28 21:44:00;;;;;;;;;;;17.50;99.90;;;;;;8258182;28;19926;-73
2021/08/28 21:48:02;;;;;;;;;;;17.50;99.90;;;;;;8257629;28;19929;-73
2021/08/28 21:52:03;;;;;;;;;;;17.40;99.90;;;;;;8257234;28;19972;-73
2021/08/28 21:56:05;;;;;;;;;;;17.40;99.90;;;;;;8259366;28;19936;-73